Time;durP1;ratioP1;P1;durP2;ratioP2;P2;SDS_P1;SDS_P2;PMS_P1;PMS_P2;Temp;Humidity;BMP_temperature;BMP_pressure;BME280_temperature;BME280_humidity;BME280_pressure;Samples;Min_cycle;Max_cycle;Signal;HPM_P1;HPM_P2
2022/03/05 00:00:44;;;;;;;16.20;10.93;;;0.10;99.90;;;;;;5044653;28;20057;-67
2022/03/05 00:03:12;;;;;;;18.05;12.80;;;0.10;99.90;;;;;;5028901;28;20059;-68
2022/03/05 00:05:39;;;;;;;19.13;12.63;;;0.10;99.90;;;;;;5043197;28;20041;-60
2022/03/05 00:08:06;;;;;;;19.33;12.50;;;-0.10;99.90;;;;;;5046446;28;20057;-60
2022/03/05 00:10:32;;;;;;;20.90;12.63;;;0.00;99.90;;;;;;5045247;28;20053;-58
2022/03/05 00:12:59;;;;;;;19.67;13.50;;;0.00;99.90;;;;;;5046450;28;20211;-58
2022/03/05 00:15:26;;;;;;;18.80;12.82;;;0.00;99.90;;;;;;5044077;28;20053;-61
2022/03/05 00:17:53;;;;;;;19.35;13.40;;;0.00;99.90;;;;;;5045379;28;20051;-60
2022/03/05 00:20:19;;;;;;;18.30;13.32;;;-0.10;99.90;;;;;;5044850;28;20561;-61
2022/03/05 00:22:46;;;;;;;20.10;13.70;;;-0.10;99.90;;;;;;5045083;28;20522;-67
2022/03/05 00:25:14;;;;;;;19.48;14.07;;;-0.10;99.90;;;;;;5044889;28;20044;-69
2022/03/05 00:27:41;;;;;;;20.10;13.88;;;-0.20;99.90;;;;;;5043769;28;20429;-69
2022/03/05 00:30:08;;;;;;;19.83;14.32;;;-0.20;99.90;;;;;;5042189;28;20052;-69
2022/03/05 00:32:34;;;;;;;19.83;13.65;;;-0.20;99.90;;;;;;5028102;28;20045;-69
2022/03/05 00:35:00;;;;;;;21.90;14.75;;;-0.30;99.90;;;;;;5045537;28;20535;-68
2022/03/05 00:37:27;;;;;;;20.85;13.10;;;-0.30;99.90;;;;;;5042583;28;20055;-67
2022/03/05 00:39:53;;;;;;;19.58;14.07;;;-0.30;99.90;;;;;;5045654;28;20713;-66
2022/03/05 00:42:19;;;;;;;21.23;14.35;;;-0.40;99.90;;;;;;5046312;28;20432;-67
2022/03/05 00:44:45;;;;;;;24.13;15.40;;;-0.40;99.90;;;;;;5045024;28;20053;-67
2022/03/05 00:47:11;;;;;;;25.25;15.20;;;-0.40;99.90;;;;;;5029099;28;20075;-69
2022/03/05 00:49:37;;;;;;;22.52;15.93;;;-0.40;99.90;;;;;;5046570;28;20052;-67
2022/03/05 00:52:04;;;;;;;20.05;14.30;;;-0.40;99.90;;;;;;5044717;28;20890;-68
2022/03/05 00:54:30;;;;;;;22.40;15.90;;;-0.50;99.90;;;;;;5045559;28;20648;-67
2022/03/05 00:56:56;;;;;;;21.77;15.07;;;-0.40;99.90;;;;;;5045909;28;20088;-59
2022/03/05 00:59:22;;;;;;;21.45;14.50;;;-0.50;99.90;;;;;;5043123;28;20061;-59
2022/03/05 01:01:49;;;;;;;20.33;14.30;;;-0.50;99.90;;;;;;5044759;28;20057;-67
2022/03/05 01:04:15;;;;;;;21.40;14.35;;;-0.50;99.90;;;;;;5044315;28;20056;-60
2022/03/05 01:06:42;;;;;;;21.02;14.07;;;-0.50;99.90;;;;;;5061019;28;20145;-60
2022/03/05 01:09:08;;;;;;;20.77;13.98;;;-0.60;99.90;;;;;;4996307;28;20059;-67
2022/03/05 01:11:35;;;;;;;24.55;15.77;;;-0.50;99.90;;;;;;5045143;28;20539;-68
2022/03/05 01:14:01;;;;;;;20.38;14.07;;;-0.60;99.90;;;;;;5033931;28;20076;-60
2022/03/05 01:16:27;;;;;;;19.45;13.70;;;-0.50;99.90;;;;;;5045222;28;20141;-59
2022/03/05 01:18:54;;;;;;;19.67;13.50;;;-0.60;99.90;;;;;;5046030;28;20198;-59
2022/03/05 01:21:20;;;;;;;22.10;14.02;;;-0.60;99.90;;;;;;5044203;28;20055;-66
2022/03/05 01:23:46;;;;;;;20.98;14.25;;;-0.60;99.90;;;;;;5043752;28;20049;-66
2022/03/05 01:26:13;;;;;;;22.10;14.32;;;-0.60;99.90;;;;;;5043363;28;20048;-66
2022/03/05 01:28:39;;;;;;;19.00;13.15;;;-0.60;99.90;;;;;;5044537;28;20057;-59
2022/03/05 01:31:05;;;;;;;21.30;14.95;;;-0.70;99.90;;;;;;5045792;28;20041;-60
2022/03/05 01:33:31;;;;;;;20.52;14.43;;;-0.70;99.90;;;;;;5045076;28;20872;-67
2022/03/05 01:35:57;;;;;;;24.05;14.77;;;-0.70;99.90;;;;;;5060245;28;20498;-68
2022/03/05 01:38:23;;;;;;;20.10;13.65;;;-0.70;99.90;;;;;;5060840;28;20512;-69
2022/03/05 01:40:51;;;;;;;20.20;13.70;;;-0.70;99.90;;;;;;5045847;28;20770;-60
2022/03/05 01:43:17;;;;;;;19.25;13.02;;;-0.70;99.90;;;;;;5045071;28;20675;-60
2022/03/05 01:45:44;;;;;;;20.20;13.02;;;-0.70;99.90;;;;;;5043788;28;20114;-68
2022/03/05 01:48:10;;;;;;;21.35;13.68;;;-0.70;99.90;;;;;;5045796;28;20048;-67
2022/03/05 01:50:36;;;;;;;21.30;13.48;;;-0.70;99.90;;;;;;5043696;28;20136;-62
2022/03/05 01:53:03;;;;;;;20.73;13.35;;;-0.70;99.90;;;;;;5026882;28;20056;-59
2022/03/05 01:55:31;;;;;;;21.02;13.75;;;-0.80;99.90;;;;;;5043570;28;20130;-68
2022/03/05 01:57:58;;;;;;;21.08;13.27;;;-0.80;99.90;;;;;;5027395;28;20052;-69
2022/03/05 02:00:24;;;;;;;19.20;12.82;;;-0.90;99.90;;;;;;5045087;28;20514;-69
2022/03/05 02:02:50;;;;;;;20.08;13.02;;;-0.90;99.90;;;;;;5045093;28;20040;-69
2022/03/05 02:05:16;;;;;;;19.38;12.40;;;-0.90;99.90;;;;;;5045195;28;20412;-69
2022/03/05 02:07:43;;;;;;;18.77;13.10;;;-0.90;99.90;;;;;;5044159;28;20052;-69
2022/03/05 02:10:09;;;;;;;20.83;12.40;;;-0.90;99.90;;;;;;5043881;28;20227;-69
2022/03/05 02:12:37;;;;;;;19.80;12.32;;;-0.90;99.90;;;;;;5045022;28;20424;-67
2022/03/05 02:15:06;;;;;;;18.02;12.88;;;-0.90;99.90;;;;;;5023797;28;20080;-69
2022/03/05 02:17:33;;;;;;;19.48;12.27;;;-0.90;99.90;;;;;;5026432;28;20067;-68
2022/03/05 02:19:59;;;;;;;20.67;12.77;;;-0.90;99.90;;;;;;5043226;28;20076;-69
2022/03/05 02:22:25;;;;;;;17.83;11.55;;;-1.00;99.90;;;;;;5044239;28;20053;-69
2022/03/05 02:24:53;;;;;;;21.33;12.45;;;-1.00;99.90;;;;;;5042835;28;20579;-59
2022/03/05 02:27:21;;;;;;;18.15;12.15;;;-1.00;99.90;;;;;;5043804;28;20049;-59
2022/03/05 02:29:48;;;;;;;21.60;14.10;;;-1.00;99.90;;;;;;5026522;28;20416;-59
2022/03/05 02:32:14;;;;;;;19.73;12.90;;;-1.00;99.90;;;;;;5044215;28;20056;-60
2022/03/05 02:34:40;;;;;;;19.90;11.93;;;-1.10;99.90;;;;;;5042409;28;20128;-60
2022/03/05 02:37:13;;;;;;;20.00;12.73;;;-1.10;99.90;;;;;;5044078;28;20419;-59
2022/03/05 02:39:44;;;;;;;19.50;13.10;;;-1.10;99.90;;;;;;5043109;28;20048;-59
2022/03/05 02:42:13;;;;;;;18.75;11.85;;;-1.10;99.90;;;;;;5042853;28;20052;-59
2022/03/05 02:44:40;;;;;;;19.20;12.27;;;-1.10;99.90;;;;;;5026727;28;20975;-59
2022/03/05 02:47:06;;;;;;;19.38;11.70;;;-1.10;99.90;;;;;;5045314;28;20072;-69
2022/03/05 02:49:33;;;;;;;18.30;11.73;;;-1.10;99.90;;;;;;5044280;28;20194;-69
2022/03/05 02:51:59;;;;;;;18.38;11.30;;;-1.10;99.90;;;;;;5042592;28;20049;-70
2022/03/05 02:54:25;;;;;;;18.58;11.35;;;-1.20;99.90;;;;;;5042418;28;20045;-69
2022/03/05 02:56:51;;;;;;;18.38;11.95;;;-1.10;99.90;;;;;;5043951;28;20053;-69
2022/03/05 02:59:18;;;;;;;16.17;10.95;;;-1.10;99.90;;;;;;5022658;28;20136;-68
2022/03/05 03:01:45;;;;;;;19.10;10.82;;;-1.10;99.90;;;;;;5036731;28;20516;-69
2022/03/05 03:04:11;;;;;;;19.45;11.05;;;-1.10;99.90;;;;;;5010691;28;20439;-69
2022/03/05 03:06:37;;;;;;;17.00;10.10;;;-1.10;99.90;;;;;;5043677;28;20057;-69
2022/03/05 03:09:04;;;;;;;18.75;11.05;;;-1.10;99.90;;;;;;5043047;28;20511;-69
2022/03/05 03:11:30;;;;;;;16.52;10.45;;;-1.10;99.90;;;;;;5043809;28;20052;-69
2022/03/05 03:13:57;;;;;;;16.95;9.52;;;-1.10;99.90;;;;;;5042277;28;20053;-69
2022/03/05 03:16:23;;;;;;;14.60;9.55;;;-1.10;99.90;;;;;;5041733;28;20079;-69
2022/03/05 03:18:50;;;;;;;16.27;10.57;;;-1.10;99.90;;;;;;5043003;28;20092;-69
2022/03/05 03:21:16;;;;;;;16.55;10.43;;;-1.00;99.90;;;;;;5026278;28;20053;-69
2022/03/05 03:23:42;;;;;;;19.73;10.30;;;-1.00;99.90;;;;;;5045072;28;20052;-69
2022/03/05 03:26:08;;;;;;;15.50;9.70;;;-1.00;99.90;;;;;;5049080;28;20396;-69
2022/03/05 03:28:34;;;;;;;17.90;11.80;;;-1.00;99.90;;;;;;5046111;28;20044;-69
2022/03/05 03:31:01;;;;;;;17.25;10.55;;;-1.00;99.90;;;;;;5047386;28;20678;-69
2022/03/05 03:33:27;;;;;;;18.08;10.98;;;-1.10;99.90;;;;;;5047430;28;20134;-69
2022/03/05 03:35:54;;;;;;;20.30;10.63;;;-1.10;99.90;;;;;;5013723;28;20056;-69
2022/03/05 03:38:20;;;;;;;17.50;10.98;;;-1.10;99.90;;;;;;5045732;28;20079;-69
2022/03/05 03:40:46;;;;;;;14.90;9.95;;;-1.10;99.90;;;;;;5047532;28;20060;-69
2022/03/05 03:43:12;;;;;;;16.30;10.27;;;-1.10;99.90;;;;;;5047862;28;20056;-69
2022/03/05 03:45:39;;;;;;;16.05;10.02;;;-1.20;99.90;;;;;;5046390;28;20170;-69
2022/03/05 03:48:05;;;;;;;19.65;11.68;;;-1.20;99.90;;;;;;5046416;28;20503;-59
2022/03/05 03:50:31;;;;;;;15.25;9.88;;;-1.20;99.90;;;;;;5045588;28;20045;-59
2022/03/05 03:52:57;;;;;;;16.38;10.20;;;-1.20;99.90;;;;;;5029121;28;20218;-59
2022/03/05 03:55:24;;;;;;;18.33;11.55;;;-1.20;99.90;;;;;;5047430;28;20080;-59
2022/03/05 03:57:51;;;;;;;18.40;11.30;;;-1.20;99.90;;;;;;5045333;28;20074;-59
2022/03/05 04:00:19;;;;;;;17.55;11.93;;;-1.20;99.90;;;;;;5012544;28;20458;-59
2022/03/05 04:02:45;;;;;;;16.75;10.80;;;-1.20;99.90;;;;;;5045189;28;20728;-59
2022/03/05 04:05:12;;;;;;;21.77;11.80;;;-1.20;99.90;;;;;;5045827;28;20638;-59
2022/03/05 04:10:24;;;;;;;18.00;10.88;;;-1.20;99.90;;;;;;5046017;28;20044;-60
2022/03/05 04:12:51;;;;;;;18.23;10.82;;;-1.20;99.90;;;;;;5062409;28;20045;-59
2022/03/05 04:15:17;;;;;;;18.27;10.30;;;-1.20;99.90;;;;;;5047739;28;20899;-59
2022/03/05 04:17:44;;;;;;;20.02;11.02;;;-1.20;99.90;;;;;;5012923;28;20388;-60
2022/03/05 04:20:11;;;;;;;21.30;12.55;;;-1.20;99.90;;;;;;5045732;28;20049;-59
2022/03/05 04:22:37;;;;;;;18.27;11.07;;;-1.30;99.90;;;;;;5045168;28;20518;-59
2022/03/05 04:25:04;;;;;;;17.48;10.63;;;-1.30;99.90;;;;;;5047089;28;20142;-59
2022/03/05 04:27:31;;;;;;;18.33;10.48;;;-1.30;99.90;;;;;;5046840;28;20080;-59
2022/03/05 04:29:57;;;;;;;19.98;12.48;;;-1.30;99.90;;;;;;5046977;28;20075;-59
2022/03/05 04:32:24;;;;;;;22.23;12.48;;;-1.30;99.90;;;;;;5045291;28;20347;-59
2022/03/05 04:34:50;;;;;;;17.98;10.90;;;-1.30;99.90;;;;;;5046114;28;20041;-59
2022/03/05 04:37:16;;;;;;;20.80;11.05;;;-1.30;99.90;;;;;;5047035;28;20051;-59
2022/03/05 04:39:42;;;;;;;19.08;11.30;;;-1.40;99.90;;;;;;5045715;28;20139;-59
2022/03/05 04:42:09;;;;;;;18.80;10.80;;;-1.40;99.90;;;;;;5046773;28;20443;-59
2022/03/05 04:44:35;;;;;;;16.73;10.70;;;-1.40;99.90;;;;;;5024473;28;20883;-59
2022/03/05 04:47:01;;;;;;;17.90;11.68;;;-1.40;99.90;;;;;;5046242;28;20500;-60
2022/03/05 04:49:28;;;;;;;17.95;10.57;;;-1.40;99.90;;;;;;5046082;28;20102;-68
2022/03/05 04:51:54;;;;;;;17.92;10.45;;;-1.40;99.90;;;;;;5046086;28;20519;-69
2022/03/05 04:54:21;;;;;;;17.60;10.40;;;-1.40;99.90;;;;;;5045957;28;20037;-69
2022/03/05 04:56:47;;;;;;;21.58;11.20;;;-1.40;99.90;;;;;;5045938;28;20810;-69
2022/03/05 04:59:13;;;;;;;21.60;10.77;;;-1.40;99.90;;;;;;5046212;28;20417;-69
2022/03/05 05:01:39;;;;;;;16.48;10.65;;;-1.40;99.90;;;;;;5046283;28;20057;-69
2022/03/05 05:04:05;;;;;;;20.60;11.43;;;-1.40;99.90;;;;;;5050341;28;20060;-69
2022/03/05 05:06:32;;;;;;;17.67;10.05;;;-1.40;99.90;;;;;;5044546;28;20067;-69
2022/03/05 05:08:59;;;;;;;18.02;10.63;;;-1.40;99.90;;;;;;5052025;28;20632;-69
2022/03/05 05:11:25;;;;;;;16.60;9.35;;;-1.40;99.90;;;;;;5065944;28;20068;-69
2022/03/05 05:13:51;;;;;;;19.30;11.45;;;-1.30;99.90;;;;;;5045722;28;20412;-69
2022/03/05 05:16:17;;;;;;;19.67;10.52;;;-1.40;99.90;;;;;;5045790;28;20157;-70
2022/03/05 05:19:24;;;;;;;18.27;9.82;;;-1.40;99.90;;;;;;5045998;28;20063;-70
2022/03/05 05:21:29;;;;;;;17.48;9.25;;;-1.40;99.90;;;;;;5045796;28;20061;-69
2022/03/05 05:23:56;;;;;;;18.77;11.02;;;-1.40;99.90;;;;;;5044345;28;20470;-70
2022/03/05 05:26:22;;;;;;;19.65;11.25;;;-1.30;99.90;;;;;;5034514;28;20052;-70
2022/03/05 05:28:49;;;;;;;16.83;10.05;;;-1.30;99.90;;;;;;5045673;28;20516;-69
2022/03/05 05:31:15;;;;;;;20.27;11.82;;;-1.30;99.90;;;;;;5043237;28;20048;-69
2022/03/05 05:33:44;;;;;;;17.98;10.57;;;-1.30;99.90;;;;;;5037381;28;20055;-69
2022/03/05 05:36:12;;;;;;;16.50;9.57;;;-1.30;99.90;;;;;;5045679;28;20451;-59
2022/03/05 05:38:39;;;;;;;17.58;11.02;;;-1.30;99.90;;;;;;5045693;28;20049;-59
2022/03/05 05:41:06;;;;;;;16.90;9.65;;;-1.30;99.90;;;;;;5011396;28;20049;-59
2022/03/05 05:43:32;;;;;;;21.45;10.23;;;-1.30;99.90;;;;;;5045147;28;20056;-62
2022/03/05 05:45:59;;;;;;;17.23;9.68;;;-1.30;99.90;;;;;;5045170;28;20048;-60
2022/03/05 05:48:25;;;;;;;18.67;10.32;;;-1.30;99.90;;;;;;5043517;28;20060;-60
2022/03/05 05:50:51;;;;;;;17.52;10.88;;;-1.40;99.90;;;;;;5060394;28;20622;-60
2022/03/05 05:53:18;;;;;;;15.57;9.73;;;-1.40;99.90;;;;;;5027784;28;20067;-60
2022/03/05 05:55:44;;;;;;;16.90;10.38;;;-1.40;99.90;;;;;;5044808;28;20071;-60
2022/03/05 05:58:10;;;;;;;20.77;12.23;;;-1.40;99.90;;;;;;5027668;28;20385;-60
2022/03/05 06:00:36;;;;;;;19.20;11.60;;;-1.40;99.90;;;;;;5044119;28;20053;-60
2022/03/05 06:03:02;;;;;;;20.05;11.52;;;-1.40;99.90;;;;;;5026950;28;20587;-60
2022/03/05 06:05:29;;;;;;;16.40;10.77;;;-1.40;99.90;;;;;;5007314;28;20053;-60
2022/03/05 06:07:56;;;;;;;20.98;11.00;;;-1.40;99.90;;;;;;5022436;28;20140;-60
2022/03/05 06:10:22;;;;;;;17.20;10.90;;;-1.40;99.90;;;;;;5044376;28;20093;-70
2022/03/05 06:12:49;;;;;;;18.75;9.85;;;-1.40;99.90;;;;;;5045545;28;20511;-69
2022/03/05 06:15:16;;;;;;;17.42;10.23;;;-1.40;99.90;;;;;;5036472;28;20052;-70
2022/03/05 06:17:43;;;;;;;21.17;11.63;;;-1.40;99.90;;;;;;5001258;28;20053;-70
2022/03/05 06:20:10;;;;;;;17.55;11.30;;;-1.40;99.90;;;;;;5043394;28;20085;-70
2022/03/05 06:22:37;;;;;;;17.67;11.23;;;-1.40;99.90;;;;;;5045280;28;20577;-70
2022/03/05 06:25:07;;;;;;;15.93;9.95;;;-1.40;99.90;;;;;;5044954;28;20056;-69
2022/03/05 06:27:33;;;;;;;17.25;10.30;;;-1.40;99.90;;;;;;5044647;28;20471;-70
2022/03/05 06:29:59;;;;;;;15.38;10.18;;;-1.40;99.90;;;;;;5042881;28;20392;-60
2022/03/05 06:32:25;;;;;;;16.92;9.55;;;-1.40;99.90;;;;;;5042890;28;20056;-60
2022/03/05 06:34:54;;;;;;;19.60;11.18;;;-1.40;99.90;;;;;;5042406;28;20698;-60
2022/03/05 06:37:21;;;;;;;16.33;9.88;;;-1.40;99.90;;;;;;5042879;28;20129;-60
2022/03/05 06:39:48;;;;;;;18.75;11.00;;;-1.40;99.90;;;;;;5008843;28;20135;-60
2022/03/05 06:42:15;;;;;;;14.30;9.60;;;-1.40;99.90;;;;;;5044216;28;20391;-60
2022/03/05 06:44:42;;;;;;;15.32;9.55;;;-1.40;99.90;;;;;;5025626;28;20045;-58
2022/03/05 06:47:08;;;;;;;15.07;10.13;;;-1.10;99.90;;;;;;5026160;28;20115;-60
2022/03/05 06:49:35;;;;;;;14.23;8.88;;;-1.20;99.90;;;;;;5043308;28;20056;-60
2022/03/05 06:52:01;;;;;;;15.10;9.95;;;-1.20;99.90;;;;;;5041735;28;20112;-60
2022/03/05 06:54:27;;;;;;;14.23;9.43;;;-1.20;99.90;;;;;;5041092;28;20049;-61
2022/03/05 06:56:53;;;;;;;17.23;9.23;;;-1.10;99.90;;;;;;5043746;28;20055;-58
2022/03/05 06:59:19;;;;;;;15.68;8.50;;;-1.10;99.90;;;;;;5044503;28;20044;-58
2022/03/05 07:01:45;;;;;;;16.40;10.63;;;-1.10;99.90;;;;;;5021526;28;20098;-58
2022/03/05 07:04:12;;;;;;;17.77;10.35;;;-1.00;99.90;;;;;;5038337;28;20091;-58
2022/03/05 07:06:38;;;;;;;16.02;10.43;;;-0.90;99.90;;;;;;5009619;28;20080;-60
2022/03/05 07:09:05;;;;;;;14.77;10.43;;;-0.90;99.90;;;;;;5026177;28;20344;-59
2022/03/05 07:11:32;;;;;;;15.10;10.18;;;-0.80;99.90;;;;;;5042212;28;20045;-58
2022/03/05 07:13:59;;;;;;;17.20;10.00;;;-0.70;99.90;;;;;;5025406;28;20246;-65
2022/03/05 07:16:25;;;;;;;15.88;10.40;;;-0.50;99.90;;;;;;5048604;28;20774;-61
2022/03/05 07:18:51;;;;;;;19.65;11.75;;;-0.30;99.90;;;;;;5025778;28;20523;-63
2022/03/05 07:21:17;;;;;;;18.30;10.93;;;-0.20;99.90;;;;;;5039312;28;20060;-58
2022/03/05 07:23:43;;;;;;;17.63;11.55;;;-0.10;99.90;;;;;;5015165;28;20079;-58
2022/03/05 07:26:10;;;;;;;16.63;9.57;;;0.10;99.90;;;;;;5043836;28;20052;-58
2022/03/05 07:28:36;;;;;;;16.42;10.18;;;0.20;99.90;;;;;;5041740;28;20148;-57
2022/03/05 07:31:02;;;;;;;15.38;8.90;;;0.40;99.90;;;;;;5043774;28;20707;-57
2022/03/05 07:33:29;;;;;;;16.42;10.20;;;0.60;99.90;;;;;;5042735;28;20458;-58
2022/03/05 07:35:55;;;;;;;17.00;10.48;;;0.80;99.90;;;;;;5042810;28;20201;-59
2022/03/05 07:38:21;;;;;;;15.60;10.63;;;1.10;99.90;;;;;;5040524;28;20124;-59
2022/03/05 07:40:47;;;;;;;16.55;10.98;;;1.30;99.90;;;;;;5041763;28;20064;-59
2022/03/05 07:43:13;;;;;;;15.90;10.35;;;1.50;99.90;;;;;;5025744;28;20048;-59
2022/03/05 07:45:40;;;;;;;16.08;11.23;;;1.80;99.90;;;;;;5024875;28;20056;-59
2022/03/05 07:48:06;;;;;;;17.55;11.50;;;2.10;99.90;;;;;;5039517;28;20079;-59
2022/03/05 07:50:33;;;;;;;16.33;10.60;;;2.40;99.90;;;;;;5042029;28;20142;-59
2022/03/05 07:52:59;;;;;;;15.38;10.65;;;2.70;99.90;;;;;;5043225;28;20053;-60
2022/03/05 07:55:25;;;;;;;17.38;11.32;;;3.00;99.90;;;;;;5041609;28;20148;-64
2022/03/05 07:57:52;;;;;;;15.15;10.70;;;3.40;99.90;;;;;;5044573;28;20092;-62
2022/03/05 08:00:18;;;;;;;17.83;12.57;;;3.70;99.90;;;;;;5010407;28;20063;-65
2022/03/05 08:02:44;;;;;;;15.80;11.02;;;3.90;99.90;;;;;;5041754;28;20064;-64
2022/03/05 08:05:10;;;;;;;13.15;10.45;;;4.30;99.90;;;;;;5042022;28;20540;-64
2022/03/05 08:07:36;;;;;;;17.30;11.52;;;4.80;99.90;;;;;;5029263;28;20053;-64
2022/03/05 08:10:07;;;;;;;16.65;11.60;;;4.80;99.90;;;;;;5027826;28;20080;-64
2022/03/05 08:12:34;;;;;;;17.75;12.60;;;5.30;99.90;;;;;;5044830;28;20049;-64
2022/03/05 08:15:01;;;;;;;26.48;21.45;;;5.40;99.90;;;;;;5046441;28;20488;-65
2022/03/05 08:17:27;;;;;;;15.23;11.73;;;5.70;99.90;;;;;;5043968;28;20123;-65
2022/03/05 08:19:54;;;;;;;15.32;11.75;;;6.00;99.90;;;;;;5026025;28;20049;-65
2022/03/05 08:22:21;;;;;;;16.75;11.93;;;6.30;99.90;;;;;;5058574;28;20131;-64
2022/03/05 08:24:47;;;;;;;16.90;11.73;;;6.40;99.90;;;;;;5047831;28;20055;-59
2022/03/05 08:27:14;;;;;;;17.98;12.90;;;6.20;99.90;;;;;;5044733;28;20048;-59
2022/03/05 08:29:40;;;;;;;15.73;11.38;;;6.30;99.90;;;;;;5042876;28;20178;-59
2022/03/05 08:32:07;;;;;;;20.88;14.85;;;6.40;99.90;;;;;;5044056;28;20055;-59
2022/03/05 08:34:34;;;;;;;17.58;12.05;;;6.60;99.90;;;;;;5046094;28;20045;-66
2022/03/05 08:37:00;;;;;;;16.30;11.82;;;6.70;99.90;;;;;;5046003;28;20049;-59
2022/03/05 08:39:28;;;;;;;15.93;12.32;;;6.80;99.90;;;;;;5024259;28;20045;-63
2022/03/05 08:41:55;;;;;;;17.70;12.18;;;7.10;99.90;;;;;;5041947;28;20528;-60
2022/03/05 08:44:21;;;;;;;18.38;13.15;;;7.50;99.90;;;;;;5045809;28;20468;-61
2022/03/05 08:46:47;;;;;;;15.52;12.27;;;7.30;99.90;;;;;;5046179;28;20113;-60
2022/03/05 08:49:13;;;;;;;15.70;12.35;;;7.70;99.90;;;;;;5045510;28;20056;-60
2022/03/05 08:51:40;;;;;;;17.83;12.38;;;7.60;99.90;;;;;;5011463;28;20041;-60
2022/03/05 08:54:06;;;;;;;20.45;14.30;;;7.50;99.90;;;;;;5045353;28;20091;-60
2022/03/05 08:56:32;;;;;;;18.70;14.55;;;7.90;99.90;;;;;;5027322;28;20051;-60
2022/03/05 08:58:58;;;;;;;18.88;13.90;;;8.50;99.90;;;;;;5044018;28;20371;-60
2022/03/05 09:01:25;;;;;;;18.52;13.55;;;8.50;99.90;;;;;;5043879;28;20061;-59
2022/03/05 09:03:52;;;;;;;18.42;13.30;;;8.80;99.90;;;;;;5029149;28;20456;-64
2022/03/05 09:06:18;;;;;;;18.55;14.50;;;9.00;94.10;;;;;;5045342;28;20131;-60
2022/03/05 09:08:44;;;;;;;18.77;15.27;;;9.20;76.50;;;;;;5044269;28;20072;-65
2022/03/05 09:11:10;;;;;;;20.13;14.07;;;9.00;66.40;;;;;;5048818;28;20127;-66
2022/03/05 09:13:37;;;;;;;17.48;13.85;;;9.20;64.90;;;;;;5050206;28;20037;-65
2022/03/05 09:16:04;;;;;;;20.67;15.35;;;9.10;61.10;;;;;;5047350;28;20052;-65
2022/03/05 09:18:30;;;;;;;19.17;14.15;;;9.00;62.90;;;;;;5048812;28;20800;-63
2022/03/05 09:20:56;;;;;;;19.10;15.40;;;9.10;62.70;;;;;;5045165;28;20061;-64
2022/03/05 09:23:23;;;;;;;18.35;14.90;;;9.20;64.30;;;;;;5047195;28;20086;-65
2022/03/05 09:25:49;;;;;;;17.45;14.93;;;9.10;62.50;;;;;;5049365;28;20478;-64
2022/03/05 09:28:15;;;;;;;19.02;14.27;;;9.60;62.70;;;;;;5065936;28;20416;-64
2022/03/05 09:30:41;;;;;;;19.55;14.75;;;9.80;62.00;;;;;;5049125;28;20080;-65
2022/03/05 09:33:08;;;;;;;20.48;16.00;;;9.80;59.10;;;;;;5031497;28;20103;-63
2022/03/05 09:35:34;;;;;;;19.58;15.55;;;10.00;59.20;;;;;;5049384;28;20120;-63
2022/03/05 09:38:00;;;;;;;20.38;15.15;;;9.80;57.90;;;;;;5050610;28;20049;-64
2022/03/05 09:40:27;;;;;;;18.75;13.80;;;10.00;58.60;;;;;;5049288;28;20098;-65
2022/03/05 09:42:53;;;;;;;20.95;15.50;;;10.00;58.10;;;;;;5038028;28;20102;-64
2022/03/05 09:45:19;;;;;;;23.02;18.35;;;10.10;57.60;;;;;;5050929;28;20041;-64
2022/03/05 09:47:46;;;;;;;21.15;17.27;;;10.00;57.20;;;;;;5051119;28;20120;-63
2022/03/05 09:50:15;;;;;;;23.75;16.88;;;9.90;57.60;;;;;;5050837;28;20710;-63
2022/03/05 09:52:42;;;;;;;20.45;17.00;;;10.00;55.80;;;;;;5048123;28;20049;-60
2022/03/05 09:55:09;;;;;;;23.08;17.40;;;10.40;57.40;;;;;;5046843;28;20049;-60
2022/03/05 09:57:35;;;;;;;21.23;15.70;;;11.20;57.70;;;;;;5047049;28;20165;-60
2022/03/05 10:00:02;;;;;;;22.48;16.50;;;11.40;56.40;;;;;;5048818;28;20053;-59
2022/03/05 10:02:31;;;;;;;22.73;18.05;;;12.10;54.90;;;;;;5048405;28;20102;-59
2022/03/05 10:05:24;;;;;;;88.70;72.50;;;11.80;53.50;;;;;;5046960;28;20473;-61
2022/03/05 10:08:12;;;;;;;34.75;26.98;;;11.80;52.40;;;;;;5060879;28;20151;-59
2022/03/05 10:10:51;;;;;;;20.58;15.88;;;12.20;52.80;;;;;;5041691;28;20045;-59
2022/03/05 10:13:30;;;;;;;22.73;16.80;;;12.20;52.10;;;;;;5043375;28;20045;-59
2022/03/05 10:15:59;;;;;;;20.98;16.77;;;12.40;51.20;;;;;;5042581;28;20057;-59
2022/03/05 10:18:30;;;;;;;27.50;20.73;;;12.90;52.30;;;;;;5044676;28;20045;-59
2022/03/05 10:20:59;;;;;;;24.55;18.75;;;12.50;51.40;;;;;;5043887;28;20459;-59
2022/03/05 10:23:25;;;;;;;23.30;17.63;;;12.20;51.70;;;;;;5044855;28;20147;-59
2022/03/05 10:25:53;;;;;;;23.33;17.15;;;12.10;51.80;;;;;;5042623;28;20044;-60
2022/03/05 10:28:25;;;;;;;50.97;41.00;;;12.10;52.80;;;;;;5044341;28;20048;-60
2022/03/05 10:31:13;;;;;;;37.25;30.50;;;12.50;51.80;;;;;;5039690;28;20420;-60
2022/03/05 10:33:47;;;;;;;25.55;20.38;;;12.60;51.00;;;;;;5059033;28;20154;-60
2022/03/05 10:36:24;;;;;;;32.42;27.08;;;13.10;50.70;;;;;;5039907;28;20059;-60
2022/03/05 10:38:54;;;;;;;24.73;18.77;;;13.40;49.90;;;;;;5040895;28;20072;-60
2022/03/05 10:41:31;;;;;;;22.45;18.40;;;13.40;50.60;;;;;;5038860;28;20136;-60
2022/03/05 10:44:06;;;;;;;29.88;23.02;;;13.30;49.50;;;;;;5039809;28;20102;-60
2022/03/05 10:46:42;;;;;;;22.13;17.67;;;13.30;47.80;;;;;;5043758;28;20114;-60
2022/03/05 10:49:23;;;;;;;23.92;16.73;;;14.00;48.00;;;;;;5040868;28;20045;-60
2022/03/05 10:51:58;;;;;;;26.33;22.05;;;14.00;47.50;;;;;;5039138;28;20099;-60
2022/03/05 10:54:26;;;;;;;21.80;17.65;;;13.90;48.20;;;;;;5041858;28;20041;-59
2022/03/05 10:57:10;;;;;;;25.17;20.38;;;13.80;48.10;;;;;;5024444;28;20080;-60
2022/03/05 10:59:41;;;;;;;27.42;23.10;;;13.90;47.90;;;;;;5043119;28;20407;-60
2022/03/05 11:02:12;;;;;;;33.80;27.53;;;13.80;48.00;;;;;;5025049;28;20284;-60
2022/03/05 11:04:39;;;;;;;40.70;31.70;;;13.90;47.00;;;;;;5040402;28;20440;-61
2022/03/05 11:07:07;;;;;;;24.45;18.98;;;14.50;47.10;;;;;;5039166;28;20056;-60
2022/03/05 11:09:35;;;;;;;22.23;17.52;;;14.00;46.00;;;;;;5038876;28;20045;-59
2022/03/05 11:12:02;;;;;;;24.33;18.67;;;13.90;47.00;;;;;;5037278;28;20106;-59
2022/03/05 11:14:28;;;;;;;24.95;19.38;;;14.40;46.40;;;;;;5046895;28;20056;-59
2022/03/05 11:16:56;;;;;;;24.63;19.15;;;14.50;47.80;;;;;;5043772;28;20071;-59
2022/03/05 11:19:26;;;;;;;21.38;18.40;;;14.40;46.70;;;;;;5042634;28;20049;-59
2022/03/05 11:21:55;;;;;;;23.17;18.35;;;14.30;46.70;;;;;;5041503;28;20061;-58
2022/03/05 11:24:21;;;;;;;21.30;17.45;;;14.00;46.60;;;;;;5042255;28;20077;-58
2022/03/05 11:26:53;;;;;;;21.77;17.73;;;14.90;46.60;;;;;;5041986;28;20055;-58
2022/03/05 11:29:29;;;;;;;23.75;17.83;;;15.20;45.70;;;;;;5025844;28;20595;-59
2022/03/05 11:32:13;;;;;;;22.52;18.00;;;15.00;44.40;;;;;;5041863;28;20067;-58
2022/03/05 11:34:44;;;;;;;23.58;18.13;;;15.00;43.80;;;;;;5042903;28;20036;-59
2022/03/05 11:37:23;;;;;;;20.48;16.60;;;15.60;45.50;;;;;;5041485;28;20049;-58
2022/03/05 11:39:49;;;;;;;22.88;18.08;;;15.30;44.10;;;;;;5054335;28;20585;-58
2022/03/05 11:42:34;;;;;;;21.50;16.65;;;15.40;44.80;;;;;;5044114;28;21796;-58
2022/03/05 11:45:21;;;;;;;19.52;16.88;;;15.60;44.40;;;;;;5042878;28;20871;-59
2022/03/05 11:47:47;;;;;;;20.58;17.20;;;15.40;44.40;;;;;;5047420;28;20935;-59
2022/03/05 11:50:15;;;;;;;26.90;21.38;;;15.50;44.00;;;;;;5047852;28;20045;-59
2022/03/05 11:52:41;;;;;;;27.58;21.52;;;15.90;43.60;;;;;;5047448;28;20048;-59
2022/03/05 11:55:18;;;;;;;34.00;28.08;;;15.60;43.90;;;;;;5028470;28;20044;-59
2022/03/05 11:57:50;;;;;;;33.63;27.42;;;16.40;43.70;;;;;;5045760;28;20075;-57
2022/03/05 12:00:35;;;;;;;26.20;19.63;;;16.00;42.20;;;;;;5059860;28;20052;-57
2022/03/05 12:03:03;;;;;;;32.33;25.73;;;16.30;42.60;;;;;;5045248;28;20130;-57
2022/03/05 12:05:41;;;;;;;27.08;19.58;;;15.90;43.30;;;;;;5046173;28;20045;-58
2022/03/05 12:08:11;;;;;;;27.73;22.27;;;14.90;42.30;;;;;;5035977;28;20128;-57
2022/03/05 12:10:39;;;;;;;26.38;20.75;;;15.20;43.90;;;;;;5040134;28;20045;-57
2022/03/05 12:13:10;;;;;;;24.45;20.00;;;15.40;44.50;;;;;;5042981;28;20044;-57
2022/03/05 12:15:45;;;;;;;32.05;26.15;;;15.70;43.80;;;;;;5044703;28;20475;-59
2022/03/05 12:18:15;;;;;;;24.70;19.77;;;15.80;42.80;;;;;;5040917;28;20055;-61
2022/03/05 12:20:46;;;;;;;21.42;17.80;;;15.10;43.30;;;;;;5045384;28;20110;-60
2022/03/05 12:23:20;;;;;;;21.35;17.88;;;14.90;44.50;;;;;;5042382;28;20041;-60
2022/03/05 12:25:48;;;;;;;24.88;18.85;;;15.50;44.10;;;;;;5041473;28;21404;-61
2022/03/05 12:28:19;;;;;;;21.63;17.27;;;15.90;43.00;;;;;;5043832;28;20041;-61
2022/03/05 12:30:47;;;;;;;23.83;18.27;;;15.80;43.00;;;;;;5044486;28;20115;-61
2022/03/05 12:33:15;;;;;;;23.67;18.83;;;15.30;42.80;;;;;;5041757;28;20052;-61
2022/03/05 12:35:43;;;;;;;22.35;17.35;;;16.00;43.70;;;;;;5046394;28;20400;-60